sensor_id;sensor_type;location;lat;lon;timestamp;P1;durP1;ratioP1;P2;durP2;ratioP2
7667;SDS011;3876;42.204;24.686;2023-09-30T00:00:06;1.80;;;1.70;;
7667;SDS011;3876;42.204;24.686;2023-09-30T00:02:34;1.23;;;1.23;;
7667;SDS011;3876;42.204;24.686;2023-09-30T00:05:02;1.60;;;1.50;;
7667;SDS011;3876;42.204;24.686;2023-09-30T00:07:29;2.13;;;1.57;;
7667;SDS011;3876;42.204;24.686;2023-09-30T00:09:56;1.67;;;1.57;;
7667;SDS011;3876;42.204;24.686;2023-09-30T00:12:23;3.03;;;1.17;;
7667;SDS011;3876;42.204;24.686;2023-09-30T00:14:49;1.23;;;1.23;;
7667;SDS011;3876;42.204;24.686;2023-09-30T00:17:16;8.90;;;1.43;;
7667;SDS011;3876;42.204;24.686;2023-09-30T00:19:43;3.37;;;1.33;;
7667;SDS011;3876;42.204;24.686;2023-09-30T00:22:11;2.30;;;1.60;;
7667;SDS011;3876;42.204;24.686;2023-09-30T00:24:38;1.97;;;1.63;;
7667;SDS011;3876;42.204;24.686;2023-09-30T00:27:05;3.17;;;1.30;;
7667;SDS011;3876;42.204;24.686;2023-09-30T00:29:32;1.47;;;1.47;;
7667;SDS011;3876;42.204;24.686;2023-09-30T00:31:58;1.87;;;1.77;;
7667;SDS011;3876;42.204;24.686;2023-09-30T00:34:25;1.63;;;1.53;;
7667;SDS011;3876;42.204;24.686;2023-09-30T00:36:52;1.60;;;1.50;;
7667;SDS011;3876;42.204;24.686;2023-09-30T00:39:20;1.50;;;1.37;;
7667;SDS011;3876;42.204;24.686;2023-09-30T00:41:47;4.40;;;1.70;;
7667;SDS011;3876;42.204;24.686;2023-09-30T00:44:14;1.47;;;1.37;;
7667;SDS011;3876;42.204;24.686;2023-09-30T00:46:41;7.93;;;2.00;;
7667;SDS011;3876;42.204;24.686;2023-09-30T00:49:08;1.70;;;1.60;;
7667;SDS011;3876;42.204;24.686;2023-09-30T00:51:36;1.33;;;1.23;;
7667;SDS011;3876;42.204;24.686;2023-09-30T00:54:03;3.43;;;1.30;;
7667;SDS011;3876;42.204;24.686;2023-09-30T00:56:32;1.33;;;1.33;;
7667;SDS011;3876;42.204;24.686;2023-09-30T00:59:00;3.40;;;0.90;;
7667;SDS011;3876;42.204;24.686;2023-09-30T01:01:28;2.10;;;2.00;;
7667;SDS011;3876;42.204;24.686;2023-09-30T01:03:56;1.63;;;1.53;;
7667;SDS011;3876;42.204;24.686;2023-09-30T01:06:23;1.40;;;1.37;;
7667;SDS011;3876;42.204;24.686;2023-09-30T01:08:50;1.53;;;1.27;;
7667;SDS011;3876;42.204;24.686;2023-09-30T01:11:17;1.87;;;1.77;;
7667;SDS011;3876;42.204;24.686;2023-09-30T01:13:45;1.50;;;1.40;;
7667;SDS011;3876;42.204;24.686;2023-09-30T01:16:12;1.57;;;1.47;;
7667;SDS011;3876;42.204;24.686;2023-09-30T01:18:40;1.47;;;1.37;;
7667;SDS011;3876;42.204;24.686;2023-09-30T01:21:07;1.53;;;1.43;;
7667;SDS011;3876;42.204;24.686;2023-09-30T01:23:36;1.43;;;1.33;;
7667;SDS011;3876;42.204;24.686;2023-09-30T01:26:04;3.67;;;1.47;;
7667;SDS011;3876;42.204;24.686;2023-09-30T01:28:32;3.07;;;1.77;;
7667;SDS011;3876;42.204;24.686;2023-09-30T01:30:58;1.70;;;1.60;;
7667;SDS011;3876;42.204;24.686;2023-09-30T01:33:25;1.53;;;1.53;;
7667;SDS011;3876;42.204;24.686;2023-09-30T01:35:53;2.43;;;2.33;;
7667;SDS011;3876;42.204;24.686;2023-09-30T01:38:20;1.53;;;1.43;;
7667;SDS011;3876;42.204;24.686;2023-09-30T01:40:48;1.60;;;1.60;;
7667;SDS011;3876;42.204;24.686;2023-09-30T01:43:15;2.63;;;2.20;;
7667;SDS011;3876;42.204;24.686;2023-09-30T01:45:42;1.73;;;1.70;;
7667;SDS011;3876;42.204;24.686;2023-09-30T01:48:10;1.37;;;1.33;;
7667;SDS011;3876;42.204;24.686;2023-09-30T01:50:37;1.80;;;1.70;;
7667;SDS011;3876;42.204;24.686;2023-09-30T01:53:04;2.13;;;2.00;;
7667;SDS011;3876;42.204;24.686;2023-09-30T01:55:31;1.53;;;1.53;;
7667;SDS011;3876;42.204;24.686;2023-09-30T01:58:00;4.13;;;2.00;;
7667;SDS011;3876;42.204;24.686;2023-09-30T02:00:26;1.87;;;1.77;;
7667;SDS011;3876;42.204;24.686;2023-09-30T02:02:54;2.03;;;1.43;;
7667;SDS011;3876;42.204;24.686;2023-09-30T02:05:21;7.70;;;2.37;;
7667;SDS011;3876;42.204;24.686;2023-09-30T02:07:48;1.60;;;1.50;;
7667;SDS011;3876;42.204;24.686;2023-09-30T02:10:15;1.90;;;1.80;;
7667;SDS011;3876;42.204;24.686;2023-09-30T02:12:43;1.70;;;1.60;;
7667;SDS011;3876;42.204;24.686;2023-09-30T02:15:12;1.77;;;1.67;;
7667;SDS011;3876;42.204;24.686;2023-09-30T02:17:39;1.23;;;1.23;;
7667;SDS011;3876;42.204;24.686;2023-09-30T02:20:10;1.40;;;1.30;;
7667;SDS011;3876;42.204;24.686;2023-09-30T02:22:44;1.50;;;1.50;;
7667;SDS011;3876;42.204;24.686;2023-09-30T02:25:12;1.63;;;1.53;;
7667;SDS011;3876;42.204;24.686;2023-09-30T02:27:39;1.60;;;1.50;;
7667;SDS011;3876;42.204;24.686;2023-09-30T02:30:07;1.27;;;1.23;;
7667;SDS011;3876;42.204;24.686;2023-09-30T02:32:38;1.43;;;1.43;;
7667;SDS011;3876;42.204;24.686;2023-09-30T02:35:06;1.10;;;1.10;;
7667;SDS011;3876;42.204;24.686;2023-09-30T02:37:33;2.53;;;2.43;;
7667;SDS011;3876;42.204;24.686;2023-09-30T02:40:02;1.63;;;1.53;;
7667;SDS011;3876;42.204;24.686;2023-09-30T02:42:30;1.70;;;1.60;;
7667;SDS011;3876;42.204;24.686;2023-09-30T02:44:59;3.97;;;2.23;;
7667;SDS011;3876;42.204;24.686;2023-09-30T02:47:26;1.67;;;1.57;;
7667;SDS011;3876;42.204;24.686;2023-09-30T02:49:55;1.87;;;1.77;;
7667;SDS011;3876;42.204;24.686;2023-09-30T02:52:23;1.70;;;1.60;;
7667;SDS011;3876;42.204;24.686;2023-09-30T02:54:50;1.67;;;1.57;;
7667;SDS011;3876;42.204;24.686;2023-09-30T02:57:17;2.80;;;1.77;;
7667;SDS011;3876;42.204;24.686;2023-09-30T02:59:44;2.13;;;1.90;;
7667;SDS011;3876;42.204;24.686;2023-09-30T03:02:11;2.77;;;1.77;;
7667;SDS011;3876;42.204;24.686;2023-09-30T03:04:38;1.57;;;1.47;;
7667;SDS011;3876;42.204;24.686;2023-09-30T03:07:06;2.30;;;2.20;;
7667;SDS011;3876;42.204;24.686;2023-09-30T03:09:33;2.00;;;1.70;;
7667;SDS011;3876;42.204;24.686;2023-09-30T03:12:01;2.23;;;2.10;;
7667;SDS011;3876;42.204;24.686;2023-09-30T03:14:29;1.70;;;1.60;;
7667;SDS011;3876;42.204;24.686;2023-09-30T03:16:56;4.17;;;1.83;;
7667;SDS011;3876;42.204;24.686;2023-09-30T03:19:23;1.60;;;1.60;;
7667;SDS011;3876;42.204;24.686;2023-09-30T03:21:49;3.30;;;2.27;;
7667;SDS011;3876;42.204;24.686;2023-09-30T03:24:17;2.30;;;2.10;;
7667;SDS011;3876;42.204;24.686;2023-09-30T03:26:46;2.10;;;2.00;;
7667;SDS011;3876;42.204;24.686;2023-09-30T03:29:13;3.00;;;2.80;;
7667;SDS011;3876;42.204;24.686;2023-09-30T03:31:39;2.20;;;2.00;;
7667;SDS011;3876;42.204;24.686;2023-09-30T03:34:06;3.73;;;1.87;;
7667;SDS011;3876;42.204;24.686;2023-09-30T03:36:33;1.80;;;1.70;;
7667;SDS011;3876;42.204;24.686;2023-09-30T03:39:00;3.40;;;1.43;;
7667;SDS011;3876;42.204;24.686;2023-09-30T03:41:32;1.50;;;1.40;;
7667;SDS011;3876;42.204;24.686;2023-09-30T03:44:00;2.13;;;2.07;;
7667;SDS011;3876;42.204;24.686;2023-09-30T03:46:27;2.27;;;2.07;;
7667;SDS011;3876;42.204;24.686;2023-09-30T03:48:55;2.17;;;2.07;;
7667;SDS011;3876;42.204;24.686;2023-09-30T03:51:21;2.37;;;2.17;;
7667;SDS011;3876;42.204;24.686;2023-09-30T03:53:50;2.37;;;1.80;;
7667;SDS011;3876;42.204;24.686;2023-09-30T03:56:17;1.90;;;1.80;;
7667;SDS011;3876;42.204;24.686;2023-09-30T03:58:45;2.07;;;1.97;;
7667;SDS011;3876;42.204;24.686;2023-09-30T04:01:13;1.83;;;1.73;;
7667;SDS011;3876;42.204;24.686;2023-09-30T04:03:41;1.97;;;1.87;;
7667;SDS011;3876;42.204;24.686;2023-09-30T04:06:09;5.27;;;1.50;;
7667;SDS011;3876;42.204;24.686;2023-09-30T04:08:36;1.87;;;1.77;;
7667;SDS011;3876;42.204;24.686;2023-09-30T04:11:03;2.53;;;1.93;;
7667;SDS011;3876;42.204;24.686;2023-09-30T04:13:30;2.53;;;1.83;;
7667;SDS011;3876;42.204;24.686;2023-09-30T04:15:59;6.20;;;2.70;;
7667;SDS011;3876;42.204;24.686;2023-09-30T04:18:26;1.57;;;1.40;;
7667;SDS011;3876;42.204;24.686;2023-09-30T04:20:53;3.43;;;1.77;;
7667;SDS011;3876;42.204;24.686;2023-09-30T04:23:20;2.27;;;2.17;;
7667;SDS011;3876;42.204;24.686;2023-09-30T04:25:47;1.73;;;1.63;;
7667;SDS011;3876;42.204;24.686;2023-09-30T04:28:14;1.97;;;1.87;;
7667;SDS011;3876;42.204;24.686;2023-09-30T04:30:45;1.87;;;1.77;;
7667;SDS011;3876;42.204;24.686;2023-09-30T04:33:14;1.77;;;1.67;;
7667;SDS011;3876;42.204;24.686;2023-09-30T04:35:42;1.93;;;1.83;;
7667;SDS011;3876;42.204;24.686;2023-09-30T04:38:10;2.00;;;1.90;;
7667;SDS011;3876;42.204;24.686;2023-09-30T04:40:38;2.00;;;1.77;;
7667;SDS011;3876;42.204;24.686;2023-09-30T04:43:05;1.80;;;1.70;;
7667;SDS011;3876;42.204;24.686;2023-09-30T04:45:31;8.47;;;1.90;;
7667;SDS011;3876;42.204;24.686;2023-09-30T04:47:58;2.37;;;2.17;;
7667;SDS011;3876;42.204;24.686;2023-09-30T04:50:28;2.20;;;2.10;;
7667;SDS011;3876;42.204;24.686;2023-09-30T04:52:55;1.90;;;1.80;;
7667;SDS011;3876;42.204;24.686;2023-09-30T04:55:22;2.10;;;1.67;;
7667;SDS011;3876;42.204;24.686;2023-09-30T04:57:49;2.20;;;2.10;;
7667;SDS011;3876;42.204;24.686;2023-09-30T05:00:18;2.67;;;2.07;;
7667;SDS011;3876;42.204;24.686;2023-09-30T05:02:50;1.80;;;1.70;;
7667;SDS011;3876;42.204;24.686;2023-09-30T05:05:17;2.47;;;1.73;;
7667;SDS011;3876;42.204;24.686;2023-09-30T05:07:46;2.20;;;2.07;;
7667;SDS011;3876;42.204;24.686;2023-09-30T05:10:13;2.53;;;2.33;;
7667;SDS011;3876;42.204;24.686;2023-09-30T05:12:41;2.07;;;1.97;;
7667;SDS011;3876;42.204;24.686;2023-09-30T05:15:11;2.43;;;2.27;;
7667;SDS011;3876;42.204;24.686;2023-09-30T05:17:40;2.27;;;2.17;;
7667;SDS011;3876;42.204;24.686;2023-09-30T05:20:09;2.27;;;2.13;;
7667;SDS011;3876;42.204;24.686;2023-09-30T05:22:37;2.07;;;1.97;;
7667;SDS011;3876;42.204;24.686;2023-09-30T05:25:07;2.30;;;2.20;;
7667;SDS011;3876;42.204;24.686;2023-09-30T05:27:34;1.97;;;1.90;;
7667;SDS011;3876;42.204;24.686;2023-09-30T05:30:01;2.17;;;2.07;;
7667;SDS011;3876;42.204;24.686;2023-09-30T05:32:27;2.03;;;1.87;;
7667;SDS011;3876;42.204;24.686;2023-09-30T05:34:54;2.47;;;2.27;;
7667;SDS011;3876;42.204;24.686;2023-09-30T05:37:21;1.97;;;1.73;;
7667;SDS011;3876;42.204;24.686;2023-09-30T05:39:48;2.13;;;2.00;;
7667;SDS011;3876;42.204;24.686;2023-09-30T05:42:16;2.33;;;2.23;;
7667;SDS011;3876;42.204;24.686;2023-09-30T05:44:43;2.80;;;1.93;;
7667;SDS011;3876;42.204;24.686;2023-09-30T05:47:11;3.90;;;1.93;;
7667;SDS011;3876;42.204;24.686;2023-09-30T05:49:37;2.00;;;1.90;;
7667;SDS011;3876;42.204;24.686;2023-09-30T05:52:04;1.77;;;1.67;;
7667;SDS011;3876;42.204;24.686;2023-09-30T05:54:31;2.17;;;2.03;;
7667;SDS011;3876;42.204;24.686;2023-09-30T05:56:58;1.90;;;1.80;;
7667;SDS011;3876;42.204;24.686;2023-09-30T05:59:27;2.47;;;1.87;;
7667;SDS011;3876;42.204;24.686;2023-09-30T06:01:54;2.47;;;2.37;;
7667;SDS011;3876;42.204;24.686;2023-09-30T06:04:21;1.70;;;1.70;;
7667;SDS011;3876;42.204;24.686;2023-09-30T06:06:48;1.60;;;1.60;;
7667;SDS011;3876;42.204;24.686;2023-09-30T06:09:14;1.83;;;1.73;;
7667;SDS011;3876;42.204;24.686;2023-09-30T06:11:41;1.90;;;1.80;;
7667;SDS011;3876;42.204;24.686;2023-09-30T06:14:08;2.00;;;1.90;;
7667;SDS011;3876;42.204;24.686;2023-09-30T06:16:36;2.97;;;2.30;;
7667;SDS011;3876;42.204;24.686;2023-09-30T06:19:03;1.63;;;1.57;;
7667;SDS011;3876;42.204;24.686;2023-09-30T06:21:31;3.73;;;1.70;;
7667;SDS011;3876;42.204;24.686;2023-09-30T06:23:59;1.87;;;1.77;;
7667;SDS011;3876;42.204;24.686;2023-09-30T06:26:26;2.37;;;2.17;;
7667;SDS011;3876;42.204;24.686;2023-09-30T06:28:54;1.70;;;1.60;;
7667;SDS011;3876;42.204;24.686;2023-09-30T06:31:21;1.60;;;1.50;;
7667;SDS011;3876;42.204;24.686;2023-09-30T06:33:50;2.37;;;1.53;;
7667;SDS011;3876;42.204;24.686;2023-09-30T06:36:17;3.47;;;2.40;;
7667;SDS011;3876;42.204;24.686;2023-09-30T06:38:46;2.13;;;1.93;;
7667;SDS011;3876;42.204;24.686;2023-09-30T06:41:15;1.60;;;1.50;;
7667;SDS011;3876;42.204;24.686;2023-09-30T06:43:43;2.07;;;1.60;;
7667;SDS011;3876;42.204;24.686;2023-09-30T06:46:10;2.33;;;2.00;;
7667;SDS011;3876;42.204;24.686;2023-09-30T06:48:38;1.23;;;1.23;;
7667;SDS011;3876;42.204;24.686;2023-09-30T06:51:12;4.70;;;1.50;;
7667;SDS011;3876;42.204;24.686;2023-09-30T06:53:40;1.73;;;1.73;;
7667;SDS011;3876;42.204;24.686;2023-09-30T06:56:07;1.97;;;1.87;;
7667;SDS011;3876;42.204;24.686;2023-09-30T06:58:34;3.77;;;1.60;;
7667;SDS011;3876;42.204;24.686;2023-09-30T07:01:00;3.63;;;2.10;;
7667;SDS011;3876;42.204;24.686;2023-09-30T07:03:27;1.70;;;1.70;;
7667;SDS011;3876;42.204;24.686;2023-09-30T07:05:55;1.90;;;1.80;;
7667;SDS011;3876;42.204;24.686;2023-09-30T07:08:26;2.30;;;2.20;;
7667;SDS011;3876;42.204;24.686;2023-09-30T07:10:55;6.97;;;1.70;;
7667;SDS011;3876;42.204;24.686;2023-09-30T07:13:21;2.10;;;2.00;;
7667;SDS011;3876;42.204;24.686;2023-09-30T07:15:48;1.90;;;1.53;;
7667;SDS011;3876;42.204;24.686;2023-09-30T07:18:16;1.73;;;1.40;;
7667;SDS011;3876;42.204;24.686;2023-09-30T07:20:42;1.90;;;1.80;;
7667;SDS011;3876;42.204;24.686;2023-09-30T07:23:09;2.37;;;1.83;;
7667;SDS011;3876;42.204;24.686;2023-09-30T07:25:39;1.70;;;1.60;;
7667;SDS011;3876;42.204;24.686;2023-09-30T07:28:06;5.67;;;1.80;;
7667;SDS011;3876;42.204;24.686;2023-09-30T07:30:36;1.20;;;1.20;;
7667;SDS011;3876;42.204;24.686;2023-09-30T07:33:03;2.20;;;1.83;;
7667;SDS011;3876;42.204;24.686;2023-09-30T07:35:30;1.30;;;1.30;;
7667;SDS011;3876;42.204;24.686;2023-09-30T07:37:57;1.85;;;1.67;;
7667;SDS011;3876;42.204;24.686;2023-09-30T07:40:24;1.20;;;1.20;;
7667;SDS011;3876;42.204;24.686;2023-09-30T07:42:52;2.00;;;1.90;;
7667;SDS011;3876;42.204;24.686;2023-09-30T07:45:19;1.50;;;1.40;;
7667;SDS011;3876;42.204;24.686;2023-09-30T07:51:07;1.73;;;1.60;;
7667;SDS011;3876;42.204;24.686;2023-09-30T07:53:38;1.17;;;1.17;;
7667;SDS011;3876;42.204;24.686;2023-09-30T07:56:05;4.57;;;1.33;;
7667;SDS011;3876;42.204;24.686;2023-09-30T07:58:33;1.77;;;1.60;;
7667;SDS011;3876;42.204;24.686;2023-09-30T08:01:00;1.53;;;1.43;;
7667;SDS011;3876;42.204;24.686;2023-09-30T08:03:26;1.17;;;1.17;;
7667;SDS011;3876;42.204;24.686;2023-09-30T08:05:53;1.67;;;1.30;;
7667;SDS011;3876;42.204;24.686;2023-09-30T08:08:20;1.60;;;1.60;;
7667;SDS011;3876;42.204;24.686;2023-09-30T08:10:47;5.17;;;1.87;;
7667;SDS011;3876;42.204;24.686;2023-09-30T08:13:14;1.47;;;1.37;;
7667;SDS011;3876;42.204;24.686;2023-09-30T08:15:44;2.03;;;1.83;;
7667;SDS011;3876;42.204;24.686;2023-09-30T08:18:10;6.43;;;1.80;;
7667;SDS011;3876;42.204;24.686;2023-09-30T08:20:37;1.50;;;1.40;;
7667;SDS011;3876;42.204;24.686;2023-09-30T08:23:04;1.77;;;1.67;;
7667;SDS011;3876;42.204;24.686;2023-09-30T08:25:30;1.97;;;1.50;;
7667;SDS011;3876;42.204;24.686;2023-09-30T08:27:57;5.80;;;1.37;;
7667;SDS011;3876;42.204;24.686;2023-09-30T08:30:24;6.27;;;1.60;;
7667;SDS011;3876;42.204;24.686;2023-09-30T08:32:52;1.97;;;1.87;;
7667;SDS011;3876;42.204;24.686;2023-09-30T08:35:19;1.47;;;1.37;;
7667;SDS011;3876;42.204;24.686;2023-09-30T08:37:45;1.33;;;1.30;;
7667;SDS011;3876;42.204;24.686;2023-09-30T08:40:12;5.40;;;0.97;;
7667;SDS011;3876;42.204;24.686;2023-09-30T08:42:39;1.20;;;1.20;;
7667;SDS011;3876;42.204;24.686;2023-09-30T08:45:07;1.10;;;1.10;;
7667;SDS011;3876;42.204;24.686;2023-09-30T08:47:39;1.13;;;1.10;;
7667;SDS011;3876;42.204;24.686;2023-09-30T08:50:08;0.80;;;0.80;;
7667;SDS011;3876;42.204;24.686;2023-09-30T08:52:36;1.00;;;1.00;;
7667;SDS011;3876;42.204;24.686;2023-09-30T08:55:04;1.40;;;1.30;;
7667;SDS011;3876;42.204;24.686;2023-09-30T08:57:32;1.00;;;1.00;;
7667;SDS011;3876;42.204;24.686;2023-09-30T09:00:03;1.50;;;1.30;;
7667;SDS011;3876;42.204;24.686;2023-09-30T09:02:32;0.80;;;0.80;;
7667;SDS011;3876;42.204;24.686;2023-09-30T09:05:01;1.52;;;1.30;;
7667;SDS011;3876;42.204;24.686;2023-09-30T09:07:29;1.00;;;1.00;;
7667;SDS011;3876;42.204;24.686;2023-09-30T09:10:03;0.83;;;0.83;;
7667;SDS011;3876;42.204;24.686;2023-09-30T09:12:31;1.20;;;1.20;;
7667;SDS011;3876;42.204;24.686;2023-09-30T09:14:58;0.80;;;0.80;;
7667;SDS011;3876;42.204;24.686;2023-09-30T09:17:25;1.92;;;1.50;;
7667;SDS011;3876;42.204;24.686;2023-09-30T09:20:07;1.03;;;1.03;;
7667;SDS011;3876;42.204;24.686;2023-09-30T09:22:40;1.08;;;1.08;;
7667;SDS011;3876;42.204;24.686;2023-09-30T09:25:08;1.10;;;1.10;;
7667;SDS011;3876;42.204;24.686;2023-09-30T09:27:35;1.02;;;1.02;;
7667;SDS011;3876;42.204;24.686;2023-09-30T09:30:18;0.80;;;0.80;;
7667;SDS011;3876;42.204;24.686;2023-09-30T09:32:54;0.80;;;0.80;;
7667;SDS011;3876;42.204;24.686;2023-09-30T09:35:24;1.17;;;1.08;;
7667;SDS011;3876;42.204;24.686;2023-09-30T09:37:55;0.90;;;0.90;;
7667;SDS011;3876;42.204;24.686;2023-09-30T09:40:23;1.08;;;1.08;;
7667;SDS011;3876;42.204;24.686;2023-09-30T09:42:51;1.23;;;1.17;;
7667;SDS011;3876;42.204;24.686;2023-09-30T09:45:20;0.80;;;0.80;;
7667;SDS011;3876;42.204;24.686;2023-09-30T09:47:49;1.00;;;1.00;;
7667;SDS011;3876;42.204;24.686;2023-09-30T09:50:17;2.90;;;1.02;;
7667;SDS011;3876;42.204;24.686;2023-09-30T09:52:45;0.85;;;0.85;;
7667;SDS011;3876;42.204;24.686;2023-09-30T09:55:16;1.50;;;1.50;;
7667;SDS011;3876;42.204;24.686;2023-09-30T09:57:44;1.48;;;1.00;;
7667;SDS011;3876;42.204;24.686;2023-09-30T10:00:12;0.98;;;0.98;;
7667;SDS011;3876;42.204;24.686;2023-09-30T10:02:41;1.88;;;1.20;;
7667;SDS011;3876;42.204;24.686;2023-09-30T10:05:08;1.38;;;1.30;;
7667;SDS011;3876;42.204;24.686;2023-09-30T10:07:38;1.27;;;1.17;;
7667;SDS011;3876;42.204;24.686;2023-09-30T10:10:09;1.75;;;0.82;;
7667;SDS011;3876;42.204;24.686;2023-09-30T10:12:41;1.05;;;0.95;;
7667;SDS011;3876;42.204;24.686;2023-09-30T10:18:09;1.00;;;1.00;;
7667;SDS011;3876;42.204;24.686;2023-09-30T10:20:37;1.17;;;1.17;;
7667;SDS011;3876;42.204;24.686;2023-09-30T10:23:23;0.95;;;0.95;;
7667;SDS011;3876;42.204;24.686;2023-09-30T10:25:51;0.80;;;0.80;;
7667;SDS011;3876;42.204;24.686;2023-09-30T10:28:36;1.00;;;1.00;;
7667;SDS011;3876;42.204;24.686;2023-09-30T10:31:11;0.98;;;0.98;;
7667;SDS011;3876;42.204;24.686;2023-09-30T10:36:45;1.42;;;1.42;;
7667;SDS011;3876;42.204;24.686;2023-09-30T10:39:17;1.05;;;1.05;;
7667;SDS011;3876;42.204;24.686;2023-09-30T10:45:42;1.05;;;1.00;;
7667;SDS011;3876;42.204;24.686;2023-09-30T10:51:00;1.10;;;1.10;;
7667;SDS011;3876;42.204;24.686;2023-09-30T10:53:27;1.85;;;1.02;;
7667;SDS011;3876;42.204;24.686;2023-09-30T10:55:55;4.10;;;0.95;;
7667;SDS011;3876;42.204;24.686;2023-09-30T10:58:38;1.38;;;1.38;;
7667;SDS011;3876;42.204;24.686;2023-09-30T11:01:06;4.30;;;1.02;;
7667;SDS011;3876;42.204;24.686;2023-09-30T11:03:34;0.98;;;0.98;;
7667;SDS011;3876;42.204;24.686;2023-09-30T11:06:01;1.40;;;1.30;;
7667;SDS011;3876;42.204;24.686;2023-09-30T11:08:29;9.98;;;1.65;;
7667;SDS011;3876;42.204;24.686;2023-09-30T11:10:56;1.10;;;1.10;;
7667;SDS011;3876;42.204;24.686;2023-09-30T11:13:25;1.10;;;0.93;;
7667;SDS011;3876;42.204;24.686;2023-09-30T11:15:59;0.90;;;0.90;;
7667;SDS011;3876;42.204;24.686;2023-09-30T11:18:28;1.55;;;1.45;;
7667;SDS011;3876;42.204;24.686;2023-09-30T11:21:06;1.02;;;1.02;;
7667;SDS011;3876;42.204;24.686;2023-09-30T11:23:35;1.33;;;1.33;;
7667;SDS011;3876;42.204;24.686;2023-09-30T11:26:02;1.02;;;1.02;;
7667;SDS011;3876;42.204;24.686;2023-09-30T11:28:37;1.20;;;1.10;;
7667;SDS011;3876;42.204;24.686;2023-09-30T11:31:07;2.28;;;1.30;;
7667;SDS011;3876;42.204;24.686;2023-09-30T11:33:48;1.20;;;1.20;;
7667;SDS011;3876;42.204;24.686;2023-09-30T11:36:17;1.05;;;1.05;;
7667;SDS011;3876;42.204;24.686;2023-09-30T11:38:45;1.55;;;1.20;;
7667;SDS011;3876;42.204;24.686;2023-09-30T11:41:13;0.93;;;0.93;;
7667;SDS011;3876;42.204;24.686;2023-09-30T11:43:45;1.10;;;1.10;;
7667;SDS011;3876;42.204;24.686;2023-09-30T11:46:25;1.65;;;1.55;;
7667;SDS011;3876;42.204;24.686;2023-09-30T11:48:58;0.90;;;0.90;;
7667;SDS011;3876;42.204;24.686;2023-09-30T11:51:25;1.13;;;1.13;;
7667;SDS011;3876;42.204;24.686;2023-09-30T11:53:53;5.60;;;1.17;;
7667;SDS011;3876;42.204;24.686;2023-09-30T11:56:21;1.02;;;1.02;;
7667;SDS011;3876;42.204;24.686;2023-09-30T11:58:53;1.80;;;1.70;;
7667;SDS011;3876;42.204;24.686;2023-09-30T12:01:19;2.15;;;2.05;;
7667;SDS011;3876;42.204;24.686;2023-09-30T12:03:47;1.95;;;1.85;;
7667;SDS011;3876;42.204;24.686;2023-09-30T12:06:15;20.73;;;19.27;;
7667;SDS011;3876;42.204;24.686;2023-09-30T12:08:42;2.17;;;2.08;;
7667;SDS011;3876;42.204;24.686;2023-09-30T12:11:10;3.70;;;3.60;;
7667;SDS011;3876;42.204;24.686;2023-09-30T12:13:38;3.50;;;3.30;;
7667;SDS011;3876;42.204;24.686;2023-09-30T12:16:06;2.15;;;1.95;;
7667;SDS011;3876;42.204;24.686;2023-09-30T12:18:34;1.45;;;1.45;;
7667;SDS011;3876;42.204;24.686;2023-09-30T12:21:01;1.35;;;1.35;;
7667;SDS011;3876;42.204;24.686;2023-09-30T12:23:30;1.38;;;1.27;;
7667;SDS011;3876;42.204;24.686;2023-09-30T12:25:57;10.80;;;9.90;;
7667;SDS011;3876;42.204;24.686;2023-09-30T12:28:24;2.55;;;2.45;;
7667;SDS011;3876;42.204;24.686;2023-09-30T12:30:52;2.75;;;2.63;;
7667;SDS011;3876;42.204;24.686;2023-09-30T12:33:18;1.98;;;1.88;;
7667;SDS011;3876;42.204;24.686;2023-09-30T12:35:45;0.82;;;0.73;;
7667;SDS011;3876;42.204;24.686;2023-09-30T12:38:12;1.85;;;1.83;;
7667;SDS011;3876;42.204;24.686;2023-09-30T12:40:40;1.65;;;1.55;;
7667;SDS011;3876;42.204;24.686;2023-09-30T12:43:08;1.23;;;1.23;;
7667;SDS011;3876;42.204;24.686;2023-09-30T12:45:35;2.08;;;1.08;;
7667;SDS011;3876;42.204;24.686;2023-09-30T12:48:03;1.13;;;1.13;;
7667;SDS011;3876;42.204;24.686;2023-09-30T12:50:30;1.73;;;1.60;;
7667;SDS011;3876;42.204;24.686;2023-09-30T12:52:57;3.72;;;3.47;;
7667;SDS011;3876;42.204;24.686;2023-09-30T12:55:24;1.33;;;1.23;;
7667;SDS011;3876;42.204;24.686;2023-09-30T12:57:53;12.07;;;11.20;;
7667;SDS011;3876;42.204;24.686;2023-09-30T13:00:20;1.83;;;1.73;;
7667;SDS011;3876;42.204;24.686;2023-09-30T13:02:48;2.13;;;2.03;;
7667;SDS011;3876;42.204;24.686;2023-09-30T13:05:14;1.23;;;1.23;;
7667;SDS011;3876;42.204;24.686;2023-09-30T13:07:42;1.27;;;1.17;;
7667;SDS011;3876;42.204;24.686;2023-09-30T13:10:09;2.35;;;2.25;;
7667;SDS011;3876;42.204;24.686;2023-09-30T13:12:36;1.38;;;1.38;;
7667;SDS011;3876;42.204;24.686;2023-09-30T13:15:04;1.30;;;1.30;;
7667;SDS011;3876;42.204;24.686;2023-09-30T13:17:33;2.35;;;2.15;;
7667;SDS011;3876;42.204;24.686;2023-09-30T13:20:00;3.50;;;0.98;;
7667;SDS011;3876;42.204;24.686;2023-09-30T13:22:30;1.63;;;1.52;;
7667;SDS011;3876;42.204;24.686;2023-09-30T13:24:57;1.55;;;1.08;;
7667;SDS011;3876;42.204;24.686;2023-09-30T13:27:26;1.40;;;1.35;;
7667;SDS011;3876;42.204;24.686;2023-09-30T13:29:53;1.35;;;1.33;;
7667;SDS011;3876;42.204;24.686;2023-09-30T13:32:23;1.25;;;1.25;;
7667;SDS011;3876;42.204;24.686;2023-09-30T13:34:50;10.50;;;9.40;;
7667;SDS011;3876;42.204;24.686;2023-09-30T13:37:17;1.33;;;1.33;;
7667;SDS011;3876;42.204;24.686;2023-09-30T13:39:44;2.53;;;2.42;;
7667;SDS011;3876;42.204;24.686;2023-09-30T13:42:10;2.80;;;2.70;;
7667;SDS011;3876;42.204;24.686;2023-09-30T13:44:37;28.95;;;26.63;;
7667;SDS011;3876;42.204;24.686;2023-09-30T13:47:04;8.65;;;8.25;;
7667;SDS011;3876;42.204;24.686;2023-09-30T13:49:32;3.47;;;3.38;;
7667;SDS011;3876;42.204;24.686;2023-09-30T13:51:59;2.33;;;2.22;;
7667;SDS011;3876;42.204;24.686;2023-09-30T13:54:26;1.27;;;1.27;;
7667;SDS011;3876;42.204;24.686;2023-09-30T13:56:53;4.10;;;3.80;;
7667;SDS011;3876;42.204;24.686;2023-09-30T13:59:20;3.45;;;2.05;;
7667;SDS011;3876;42.204;24.686;2023-09-30T14:01:47;1.50;;;1.50;;
7667;SDS011;3876;42.204;24.686;2023-09-30T14:04:15;13.05;;;11.40;;
7667;SDS011;3876;42.204;24.686;2023-09-30T14:06:43;2.03;;;1.92;;
7667;SDS011;3876;42.204;24.686;2023-09-30T14:09:09;2.05;;;1.10;;
7667;SDS011;3876;42.204;24.686;2023-09-30T14:11:40;1.23;;;1.20;;
7667;SDS011;3876;42.204;24.686;2023-09-30T14:14:06;4.30;;;4.10;;
7667;SDS011;3876;42.204;24.686;2023-09-30T14:16:34;1.45;;;1.45;;
7667;SDS011;3876;42.204;24.686;2023-09-30T14:19:02;5.10;;;4.63;;
7667;SDS011;3876;42.204;24.686;2023-09-30T14:21:29;8.40;;;7.90;;
7667;SDS011;3876;42.204;24.686;2023-09-30T14:23:58;3.65;;;3.40;;
7667;SDS011;3876;42.204;24.686;2023-09-30T14:26:27;62.38;;;24.52;;
7667;SDS011;3876;42.204;24.686;2023-09-30T14:28:54;53.88;;;22.75;;
7667;SDS011;3876;42.204;24.686;2023-09-30T14:31:20;103.18;;;36.92;;
7667;SDS011;3876;42.204;24.686;2023-09-30T14:33:47;57.28;;;23.38;;
7667;SDS011;3876;42.204;24.686;2023-09-30T14:36:14;144.52;;;48.15;;
7667;SDS011;3876;42.204;24.686;2023-09-30T14:38:42;55.25;;;22.35;;
7667;SDS011;3876;42.204;24.686;2023-09-30T14:41:11;38.63;;;17.75;;
7667;SDS011;3876;42.204;24.686;2023-09-30T14:43:38;4.80;;;3.60;;
7667;SDS011;3876;42.204;24.686;2023-09-30T14:46:05;1.50;;;1.40;;
7667;SDS011;3876;42.204;24.686;2023-09-30T14:48:33;47.80;;;42.75;;
7667;SDS011;3876;42.204;24.686;2023-09-30T14:51:00;22.90;;;20.88;;
7667;SDS011;3876;42.204;24.686;2023-09-30T14:53:28;9.55;;;8.65;;
7667;SDS011;3876;42.204;24.686;2023-09-30T14:55:54;4.30;;;3.80;;
7667;SDS011;3876;42.204;24.686;2023-09-30T14:58:22;2.55;;;2.45;;
7667;SDS011;3876;42.204;24.686;2023-09-30T15:00:49;1.25;;;1.25;;
7667;SDS011;3876;42.204;24.686;2023-09-30T15:03:16;2.25;;;2.15;;
7667;SDS011;3876;42.204;24.686;2023-09-30T15:05:46;6.45;;;5.95;;
7667;SDS011;3876;42.204;24.686;2023-09-30T15:08:14;2.25;;;2.15;;
7667;SDS011;3876;42.204;24.686;2023-09-30T15:10:41;31.58;;;20.45;;
7667;SDS011;3876;42.204;24.686;2023-09-30T15:13:09;92.13;;;40.08;;
7667;SDS011;3876;42.204;24.686;2023-09-30T15:15:37;125.07;;;49.90;;
7667;SDS011;3876;42.204;24.686;2023-09-30T15:18:04;111.95;;;48.15;;
7667;SDS011;3876;42.204;24.686;2023-09-30T15:20:37;256.85;;;100.70;;